Time;durP1;ratioP1;P1;durP2;ratioP2;P2;SDS_P1;SDS_P2;PMS_P1;PMS_P2;Temp;Humidity;BMP_temperature;BMP_pressure;BME280_temperature;BME280_humidity;BME280_pressure;Samples;Min_cycle;Max_cycle;Signal;HPM_P1;HPM_P2
2021/12/19 00:01:03;;;;;;;;;39.25;33.25;;;;;9.40;62.90;102988.69;4963252;28;45165;-45
2021/12/19 00:03:53;;;;;;;;;41.00;34.00;;;;;9.38;62.54;102977.25;4945725;28;46477;-44
2021/12/19 00:09:04;;;;;;;;;44.75;35.25;;;;;9.38;62.89;102980.78;4963095;28;45441;-47
2021/12/19 00:11:30;;;;;;;;;37.75;29.75;;;;;9.36;63.13;102974.59;4962780;28;45584;-46
2021/12/19 00:13:56;;;;;;;;;39.75;33.75;;;;;9.35;63.05;102985.91;4962685;28;46079;-45
2021/12/19 00:16:22;;;;;;;;;35.75;30.25;;;;;9.32;63.15;102963.94;4963107;28;45359;-46
2021/12/19 00:18:50;;;;;;;;;40.25;31.50;;;;;9.33;63.21;102974.47;4962891;28;45286;-44
2021/12/19 00:21:17;;;;;;;;;32.50;25.00;;;;;9.29;63.09;102969.13;4945504;28;45359;-45
2021/12/19 00:23:44;;;;;;;;;32.25;27.25;;;;;9.31;63.02;102970.94;4945159;28;46534;-45
2021/12/19 00:26:11;;;;;;;;;35.25;25.50;;;;;9.28;63.23;102960.34;4962832;28;45264;-46
2021/12/19 00:28:37;;;;;;;;;35.00;31.75;;;;;9.31;62.89;102963.06;4945108;28;45367;-47
2021/12/19 00:31:04;;;;;;;;;34.00;29.25;;;;;9.30;63.04;102955.19;4962576;28;45450;-43
2021/12/19 00:33:30;;;;;;;;;38.75;30.25;;;;;9.29;63.10;102949.03;4961276;28;47474;-43
2021/12/19 00:35:55;;;;;;;;;32.50;30.75;;;;;9.27;63.01;102946.34;4961557;28;45221;-44
2021/12/19 00:38:21;;;;;;;;;33.00;29.25;;;;;9.30;63.13;102950.81;4962625;28;45157;-48
2021/12/19 00:40:46;;;;;;;;;44.50;33.25;;;;;9.29;62.98;102946.41;4962573;28;45383;-44
2021/12/19 00:43:23;;;;;;;;;43.25;35.00;;;;;9.31;63.11;102952.59;4962434;28;45419;-44
2021/12/19 00:45:50;;;;;;;;;37.25;33.25;;;;;9.31;63.20;102949.06;4944927;28;45526;-47
2021/12/19 00:48:16;;;;;;;;;21.00;18.50;;;;;9.28;63.17;102947.22;4962488;28;45408;-45
2021/12/19 00:50:42;;;;;;;;;37.75;33.25;;;;;9.29;62.93;102945.53;4962372;28;45510;-43
2021/12/19 00:53:07;;;;;;;;;35.25;29.00;;;;;9.30;63.05;102945.56;4962407;28;47244;-44
2021/12/19 00:55:34;;;;;;;;;37.00;31.50;;;;;9.31;63.20;102939.47;4962298;28;45291;-46
2021/12/19 00:58:00;;;;;;;;;39.50;33.50;;;;;9.29;62.99;102932.41;4962343;28;45302;-44
2021/12/19 01:00:29;;;;;;;;;31.00;29.00;;;;;9.29;62.92;102927.16;4962097;28;45699;-44
2021/12/19 01:02:58;;;;;;;;;31.75;29.50;;;;;9.27;63.00;102935.88;4962266;28;45478;-45
2021/12/19 01:05:26;;;;;;;;;30.25;26.25;;;;;9.27;63.17;102927.13;4962232;28;45250;-44
2021/12/19 01:07:52;;;;;;;;;36.25;28.25;;;;;9.23;62.96;102926.16;4962139;28;45217;-46
2021/12/19 01:10:18;;;;;;;;;33.25;27.25;;;;;9.26;63.29;102927.97;4944378;28;45474;-44
2021/12/19 01:12:43;;;;;;;;;34.00;31.75;;;;;9.25;63.18;102931.44;4961989;28;46215;-47
2021/12/19 01:15:13;;;;;;;;;36.25;30.00;;;;;9.24;63.21;102924.41;4962010;28;45467;-46
2021/12/19 01:17:39;;;;;;;;;40.00;29.00;;;;;9.24;63.08;102925.31;4944720;28;45340;-46
2021/12/19 01:20:07;;;;;;;;;36.50;33.00;;;;;9.25;62.90;102923.56;4961790;28;45232;-46
2021/12/19 01:22:33;;;;;;;;;31.50;26.25;;;;;9.19;63.57;102920.78;4961785;28;47796;-45
2021/12/19 01:24:58;;;;;;;;;34.75;28.75;;;;;9.21;63.15;102922.59;4961751;28;45283;-46
2021/12/19 01:27:23;;;;;;;;;32.50;29.25;;;;;9.20;63.27;102922.56;4961890;28;45276;-45
2021/12/19 01:29:49;;;;;;;;;35.75;31.50;;;;;9.19;63.25;102924.25;4961669;28;45387;-44
2021/12/19 01:32:14;;;;;;;;;36.25;32.25;;;;;9.15;63.18;102919.78;4961765;28;45403;-46
2021/12/19 01:34:40;;;;;;;;;32.75;28.00;;;;;9.17;63.08;102922.44;4944474;28;45322;-46
2021/12/19 01:37:05;;;;;;;;;31.25;28.75;;;;;9.15;63.24;102921.53;4944287;28;45712;-45
2021/12/19 01:39:30;;;;;;;;;39.50;30.00;;;;;9.17;63.16;102932.94;4961467;28;45343;-45
2021/12/19 01:41:58;;;;;;;;;37.50;29.50;;;;;9.15;63.26;102926.78;4944201;28;47164;-48
2021/12/19 01:44:25;;;;;;;;;34.25;29.00;;;;;9.14;63.28;102925.00;4944235;28;45314;-45
2021/12/19 01:46:51;;;;;;;;;31.75;23.00;;;;;9.11;63.54;102923.19;4961326;28;45251;-44
2021/12/19 01:49:19;;;;;;;;;32.25;26.75;;;;;9.10;63.25;102922.28;4961634;28;45474;-46
2021/12/19 01:51:44;;;;;;;;;27.75;22.25;;;;;9.09;63.42;102924.88;4961299;28;45357;-45
2021/12/19 01:54:10;;;;;;;;;39.00;31.75;;;;;9.07;63.33;102914.34;4961470;28;45326;-46
2021/12/19 01:56:37;;;;;;;;;29.25;23.50;;;;;9.08;63.27;102923.09;4961610;28;45293;-46
2021/12/19 01:59:03;;;;;;;;;31.50;25.25;;;;;9.07;63.40;102924.84;4961149;28;45351;-47
2021/12/19 02:01:29;;;;;;;;;38.50;33.25;;;;;9.07;63.51;102913.47;4961259;28;46055;-47
2021/12/19 02:03:55;;;;;;;;;32.50;29.00;;;;;9.05;63.90;102910.78;4961359;28;45259;-44
2021/12/19 02:06:20;;;;;;;;;36.75;28.50;;;;;9.04;63.34;102913.38;4961484;28;45812;-46
2021/12/19 02:08:48;;;;;;;;;30.25;26.00;;;;;9.04;63.63;102913.38;4961366;28;45303;-48
2021/12/19 02:11:15;;;;;;;;;31.50;25.25;;;;;9.03;63.66;102909.88;4934788;28;47320;-47
2021/12/19 02:13:40;;;;;;;;;31.25;26.25;;;;;8.99;63.60;102896.63;4924390;28;45257;-44
2021/12/19 02:16:05;;;;;;;;;29.00;23.00;;;;;8.99;63.68;102902.75;4941868;28;45331;-47
2021/12/19 02:18:31;;;;;;;;;34.50;28.00;;;;;8.98;63.77;102897.47;4941964;28;46223;-45
2021/12/19 02:20:58;;;;;;;;;29.50;23.75;;;;;8.96;63.52;102897.44;4941740;28;46099;-47
2021/12/19 02:23:26;;;;;;;;;25.75;20.25;;;;;8.96;63.59;102896.56;4942103;28;45244;-47
2021/12/19 02:25:54;;;;;;;;;35.00;24.75;;;;;8.96;63.44;102889.56;4941559;28;45190;-45
2021/12/19 02:28:19;;;;;;;;;40.50;29.25;;;;;8.96;63.65;102896.56;4941706;28;45412;-45
2021/12/19 02:30:45;;;;;;;;;25.75;22.00;;;;;8.93;63.61;102892.09;4941222;28;45404;-46
2021/12/19 02:33:16;;;;;;;;;30.50;24.75;;;;;8.92;63.59;102883.34;4941838;28;45341;-48
2021/12/19 02:35:47;;;;;;;;;36.00;27.25;;;;;8.92;63.93;102880.72;4925038;28;45521;-47
2021/12/19 02:38:38;;;;;;;;;15.00;12.50;;;;;8.91;63.91;102884.19;4941584;28;45174;-43
2021/12/19 02:49:19;;;;;;;;;28.75;25.50;;;;;8.89;63.94;102871.88;4941619;28;45260;-49
2021/12/19 02:51:44;;;;;;;;;28.50;26.00;;;;;8.88;63.79;102875.34;4941134;28;46166;-45
2021/12/19 02:54:09;;;;;;;;;31.00;24.75;;;;;8.88;63.84;102880.59;4941309;28;45326;-45
2021/12/19 02:56:35;;;;;;;;;31.75;26.00;;;;;8.87;63.91;102878.84;4941372;28;45257;-44
2021/12/19 02:59:00;;;;;;;;;28.25;22.25;;;;;8.89;63.77;102880.66;4941554;28;45263;-44
2021/12/19 03:01:26;;;;;;;;;29.00;23.75;;;;;8.87;63.78;102863.13;4911504;28;46531;-46
2021/12/19 03:03:52;;;;;;;;;29.50;25.50;;;;;8.87;63.28;102868.34;4944882;28;45354;-48
2021/12/19 03:06:17;;;;;;;;;33.75;26.75;;;;;8.89;63.60;102866.66;4944657;28;45584;-46
2021/12/19 03:08:46;;;;;;;;;27.25;22.75;;;;;8.88;63.63;102863.16;4944846;28;45230;-44
2021/12/19 03:19:14;;;;;;;;;21.00;15.50;;;;;8.86;63.96;102858.72;4963930;28;45241;-44
2021/12/19 03:21:41;;;;;;;;;35.50;28.00;;;;;8.86;63.92;102856.09;4946250;28;48056;-45
2021/12/19 03:24:07;;;;;;;;;31.25;26.00;;;;;8.86;64.13;102859.59;4963695;28;45196;-48
2021/12/19 03:26:32;;;;;;;;;29.00;25.75;;;;;8.86;64.02;102853.47;4963885;28;45486;-48
2021/12/19 03:28:57;;;;;;;;;24.25;19.00;;;;;8.84;63.81;102853.44;4963493;28;45324;-45
2021/12/19 03:31:23;;;;;;;;;24.75;22.25;;;;;8.85;63.87;102857.81;4946094;28;47967;-45
2021/12/19 03:33:48;;;;;;;;;28.00;26.25;;;;;8.86;64.12;102856.09;4963586;28;45362;-46
2021/12/19 03:36:13;;;;;;;;;29.25;23.75;;;;;8.86;63.91;102856.97;4946451;28;45256;-45
2021/12/19 03:38:43;;;;;;;;;28.25;23.25;;;;;8.85;63.91;102846.44;4963526;28;45449;-45
2021/12/19 03:41:21;;;;;;;;;27.25;23.50;;;;;8.87;64.11;102855.25;4946160;28;48309;-47
2021/12/19 03:43:48;;;;;;;;;25.50;19.50;;;;;8.87;63.99;102856.13;4945690;28;45908;-48
2021/12/19 03:46:13;;;;;;;;;25.25;20.75;;;;;8.87;64.06;102855.25;4963702;28;45457;-45
2021/12/19 03:48:39;;;;;;;;;27.00;21.75;;;;;8.84;64.15;102857.78;4945901;28;45310;-46
2021/12/19 03:51:05;;;;;;;;;20.00;16.75;;;;;8.82;64.01;102855.13;4945991;28;47268;-45
2021/12/19 03:53:30;;;;;;;;;27.00;24.50;;;;;8.85;64.11;102859.56;4945925;28;45363;-44
2021/12/19 03:55:56;;;;;;;;;26.00;21.00;;;;;8.80;64.11;102855.91;4963261;28;45234;-46
2021/12/19 03:58:21;;;;;;;;;19.25;18.75;;;;;8.84;64.04;102860.38;4963085;28;45370;-45
2021/12/19 04:00:48;;;;;;;;;27.50;22.00;;;;;8.83;64.14;102854.28;4963125;28;45958;-47
2021/12/19 04:03:19;;;;;;;;;27.25;21.25;;;;;8.80;63.88;102856.78;4945642;28;45275;-49
2021/12/19 04:05:47;;;;;;;;;27.50;20.00;;;;;8.82;63.97;102859.44;4963383;28;45386;-44
2021/12/19 04:08:13;;;;;;;;;24.50;21.75;;;;;8.78;64.13;102856.75;4945731;28;45553;-46
2021/12/19 04:10:39;;;;;;;;;23.75;20.75;;;;;8.77;64.29;102860.22;4962570;28;45355;-45
2021/12/19 04:13:04;;;;;;;;;18.50;16.75;;;;;8.76;64.04;102853.19;4963078;28;45194;-44
2021/12/19 04:15:30;;;;;;;;;23.50;19.50;;;;;8.74;64.13;102841.81;4945509;28;45214;-47
2021/12/19 04:17:56;;;;;;;;;19.75;18.00;;;;;8.72;64.18;102847.84;4963064;28;45482;-47
2021/12/19 04:20:22;;;;;;;;;19.25;17.50;;;;;8.73;64.26;102846.97;4962656;28;45176;-43
2021/12/19 04:22:50;;;;;;;;;22.50;19.00;;;;;8.72;64.31;102842.63;4962959;28;45304;-45
2021/12/19 04:25:16;;;;;;;;;18.75;16.75;;;;;8.67;64.13;102842.47;4962918;28;45434;-46
2021/12/19 04:27:42;;;;;;;;;20.50;18.25;;;;;8.66;64.39;102847.69;4962930;28;45316;-47
2021/12/19 04:30:10;;;;;;;;;25.50;18.75;;;;;8.64;64.31;102837.16;4962367;28;45947;-44
2021/12/19 04:32:41;;;;;;;;;15.75;14.75;;;;;8.61;64.32;102834.44;4950160;28;45458;-44
2021/12/19 04:35:09;;;;;;;;;17.00;14.75;;;;;8.60;64.29;102833.56;4962814;28;45244;-46
2021/12/19 04:40:23;;;;;;;;;16.75;13.75;;;;;8.55;64.42;102836.88;4962223;28;45952;-46
2021/12/19 04:53:23;;;;;;;;;18.25;17.75;;;;;8.52;64.52;102813.25;4962414;28;45244;-47
2021/12/19 05:14:40;;;;;;;;;11.50;11.00;;;;;8.43;64.52;102819.94;4942532;28;45443;-46
2021/12/19 05:17:09;;;;;;;;;14.00;11.50;;;;;8.41;64.53;102816.38;4942806;28;45391;-46
2021/12/19 05:19:48;;;;;;;;;14.50;14.25;;;;;8.38;64.34;102811.06;4942589;28;45340;-48
2021/12/19 05:22:14;;;;;;;;;18.25;15.75;;;;;8.39;64.59;102810.25;4926707;28;46305;-45
2021/12/19 05:24:47;;;;;;;;;19.75;13.00;;;;;8.38;64.73;102811.06;4942626;28;45343;-48
2021/12/19 05:27:13;;;;;;;;;15.75;12.25;;;;;8.39;64.32;102819.81;4942686;28;45416;-45
2021/12/19 05:29:39;;;;;;;;;14.25;13.00;;;;;8.37;64.34;102808.41;4924954;28;45314;-45
2021/12/19 05:32:06;;;;;;;;;18.75;17.25;;;;;8.34;64.35;102809.22;4958215;28;45324;-45
2021/12/19 05:34:31;;;;;;;;;13.75;12.75;;;;;8.37;64.78;102808.41;4961775;28;45318;-48
2021/12/19 05:45:18;;;;;;;;;19.00;11.00;;;;;8.33;64.46;102807.44;4961382;28;45323;-44
2021/12/19 05:47:48;;;;;;;;;12.75;12.50;;;;;8.33;64.59;102803.91;4944425;28;45330;-45
2021/12/19 05:50:16;;;;;;;;;14.00;13.00;;;;;8.33;64.56;102796.97;4961394;28;45573;-45
2021/12/19 05:52:41;;;;;;;;;16.25;15.00;;;;;8.32;64.80;102794.31;4961425;28;45383;-49
2021/12/19 05:55:08;;;;;;;;;17.00;14.00;;;;;8.33;64.77;102796.97;4961266;28;45240;-47
2021/12/19 05:57:34;;;;;;;;;20.00;13.75;;;;;8.32;64.48;102797.81;4961791;28;45453;-49
2021/12/19 06:00:00;;;;;;;;;19.50;15.75;;;;;8.34;64.78;102797.84;4943565;28;45469;-51
2021/12/19 06:02:26;;;;;;;;;18.75;16.75;;;;;8.33;64.42;102799.59;4943960;28;47822;-45
2021/12/19 06:04:52;;;;;;;;;20.00;14.25;;;;;8.33;64.49;102806.53;4960036;28;47207;-45
2021/12/19 06:07:17;;;;;;;;;14.75;12.75;;;;;8.31;64.51;102801.25;4961494;28;45263;-45
2021/12/19 06:09:42;;;;;;;;;15.00;13.25;;;;;8.30;64.71;102799.47;4961130;28;45215;-45
2021/12/19 06:12:08;;;;;;;;;16.75;13.00;;;;;8.32;64.83;102795.19;4956475;28;46911;-46
2021/12/19 06:14:34;;;;;;;;;23.00;19.50;;;;;8.33;64.89;102790.81;4961008;28;45506;-45
2021/12/19 06:17:01;;;;;;;;;13.25;12.25;;;;;8.33;64.84;102789.09;4961435;28;45266;-44
2021/12/19 06:19:27;;;;;;;;;15.75;15.25;;;;;8.34;64.72;102788.25;4959653;28;46236;-46
2021/12/19 06:21:53;;;;;;;;;15.00;14.50;;;;;8.35;64.46;102799.63;4960087;28;46187;-45
2021/12/19 06:24:19;;;;;;;;;15.75;14.25;;;;;8.35;64.70;102791.75;4960814;28;45481;-48
2021/12/19 06:26:44;;;;;;;;;16.00;12.75;;;;;8.34;64.81;102789.97;4961250;28;45354;-45
2021/12/19 06:29:10;;;;;;;;;22.00;12.75;;;;;8.34;64.92;102790.88;4960660;28;45384;-45
2021/12/19 06:31:36;;;;;;;;;18.00;15.75;;;;;8.33;64.79;102788.19;4960744;28;45520;-45
2021/12/19 06:34:01;;;;;;;;;14.50;14.00;;;;;8.33;64.60;102789.09;4959860;28;45359;-45
2021/12/19 06:36:27;;;;;;;;;11.00;11.00;;;;;8.32;64.74;102779.47;4961167;28;45346;-45
2021/12/19 06:38:52;;;;;;;;;17.00;14.00;;;;;8.30;64.79;102783.75;4960697;28;45510;-47
2021/12/19 06:41:18;;;;;;;;;13.00;11.50;;;;;8.29;64.73;102780.28;4960827;28;45598;-48
2021/12/19 06:43:44;;;;;;;;;13.75;11.00;;;;;8.24;64.89;102771.41;4960597;28;45249;-48
2021/12/19 06:46:09;;;;;;;;;15.50;13.00;;;;;8.25;65.03;102780.13;4960969;28;45235;-46
2021/12/19 06:48:34;;;;;;;;;19.50;14.50;;;;;8.26;65.10;102776.66;4960823;28;45258;-45
2021/12/19 06:51:00;;;;;;;;;15.25;14.00;;;;;8.26;64.84;102781.91;4960656;28;45222;-44
2021/12/19 06:53:25;;;;;;;;;17.25;13.25;;;;;8.27;64.88;102779.31;4960689;28;45254;-48
2021/12/19 06:55:51;;;;;;;;;17.25;14.50;;;;;8.26;64.78;102781.91;4960823;28;45234;-46
2021/12/19 06:58:16;;;;;;;;;14.25;12.75;;;;;8.27;64.77;102778.44;4960364;28;45413;-47
2021/12/19 07:00:42;;;;;;;;;11.25;9.00;;;;;8.24;64.76;102781.88;4960743;28;45272;-45
2021/12/19 07:03:10;;;;;;;;;19.75;17.50;;;;;8.24;64.73;102781.00;4939881;28;45385;-45
2021/12/19 07:05:36;;;;;;;;;19.00;13.50;;;;;8.24;65.16;102792.34;4953418;28;45274;-44
2021/12/19 07:08:01;;;;;;;;;14.50;12.75;;;;;8.24;65.01;102791.47;4960499;28;45352;-45
2021/12/19 07:10:27;;;;;;;;;19.25;17.75;;;;;8.22;64.78;102794.03;4960082;28;46052;-47
2021/12/19 07:12:52;;;;;;;;;20.75;16.75;;;;;8.20;65.06;102793.13;4960463;28;45297;-45
2021/12/19 07:15:18;;;;;;;;;19.50;15.50;;;;;8.20;65.16;102789.59;4943141;28;45348;-48
2021/12/19 07:17:44;;;;;;;;;21.25;15.50;;;;;8.21;65.04;102797.50;4960271;28;45270;-45
2021/12/19 07:20:10;;;;;;;;;20.75;18.75;;;;;8.22;64.88;102790.53;4942654;28;48150;-48
2021/12/19 07:22:36;;;;;;;;;16.75;14.25;;;;;8.21;65.15;102787.00;4942821;28;45208;-45
2021/12/19 07:25:02;;;;;;;;;14.25;13.00;;;;;8.22;65.06;102790.53;4960556;28;45181;-44
2021/12/19 07:27:27;;;;;;;;;19.00;14.75;;;;;8.21;65.03;102780.91;4943058;28;45717;-45
2021/12/19 07:29:56;;;;;;;;;19.00;15.75;;;;;8.21;65.06;102776.53;4959907;28;45411;-44
2021/12/19 07:32:22;;;;;;;;;15.50;13.75;;;;;8.19;65.21;102779.94;4960117;28;45459;-46
2021/12/19 07:34:49;;;;;;;;;19.25;15.50;;;;;8.17;64.96;102768.56;4960280;28;45452;-46
2021/12/19 07:37:15;;;;;;;;;18.25;15.00;;;;;8.17;65.11;102771.19;4960217;28;45260;-46
2021/12/19 07:39:52;;;;;;;;;17.25;16.00;;;;;8.17;65.41;102772.06;4959888;28;46163;-44
2021/12/19 07:42:18;;;;;;;;;14.25;13.00;;;;;8.18;65.25;102781.69;4942712;28;45510;-44
2021/12/19 07:44:44;;;;;;;;;15.00;11.75;;;;;8.18;65.09;102778.22;4942676;28;45393;-43
2021/12/19 07:47:12;;;;;;;;;16.00;16.00;;;;;8.17;65.15;102773.81;4945884;28;45267;-43
2021/12/19 07:49:38;;;;;;;;;14.50;12.00;;;;;8.19;64.88;102779.94;4945877;28;45892;-46
2021/12/19 07:52:03;;;;;;;;;17.75;14.00;;;;;8.14;65.25;102772.88;4963477;28;45292;-43
2021/12/19 07:54:29;;;;;;;;;15.00;12.50;;;;;8.17;64.97;102779.03;4963487;28;45228;-45
2021/12/19 07:56:54;;;;;;;;;18.25;14.25;;;;;8.19;65.10;102779.94;4926882;28;45653;-43
2021/12/19 07:59:19;;;;;;;;;16.25;14.25;;;;;8.16;65.14;102774.66;4939059;28;46628;-46
2021/12/19 08:01:45;;;;;;;;;18.00;13.25;;;;;8.18;64.93;102772.97;4963177;28;45300;-46
2021/12/19 08:04:10;;;;;;;;;17.25;15.00;;;;;8.21;65.14;102775.66;4963340;28;45176;-48
2021/12/19 08:06:36;;;;;;;;;12.00;12.00;;;;;8.22;65.09;102783.56;4963161;28;45180;-46
2021/12/19 08:09:09;;;;;;;;;18.25;14.50;;;;;8.22;65.07;102780.94;4945548;28;46712;-46
2021/12/19 08:11:40;;;;;;;;;16.50;12.50;;;;;8.15;65.00;102763.28;4963009;28;45456;-46
2021/12/19 08:14:10;;;;;;;;;14.75;12.75;;;;;8.23;65.19;102779.22;4962875;28;45335;-48
2021/12/19 08:16:36;;;;;;;;;19.00;13.25;;;;;8.25;64.88;102782.75;4963133;28;45573;-45
2021/12/19 08:19:01;;;;;;;;;19.00;14.25;;;;;8.25;65.04;102781.03;4945179;28;46257;-46
2021/12/19 08:21:27;;;;;;;;;14.25;13.00;;;;;8.25;64.96;102777.50;4963098;28;45228;-48
2021/12/19 08:23:52;;;;;;;;;17.75;14.75;;;;;8.28;64.98;102788.09;4962839;28;45178;-46
2021/12/19 08:26:19;;;;;;;;;17.25;15.00;;;;;8.29;64.95;102787.25;4963036;28;45441;-46
2021/12/19 08:28:44;;;;;;;;;18.75;16.00;;;;;8.29;65.14;102780.28;4962425;28;45446;-45
2021/12/19 08:31:10;;;;;;;;;16.00;13.25;;;;;8.30;65.29;102775.91;4962654;28;45276;-44
2021/12/19 08:33:35;;;;;;;;;12.75;12.00;;;;;8.29;65.18;102780.28;4962693;28;45527;-46
2021/12/19 08:36:01;;;;;;;;;16.75;16.75;;;;;8.33;65.19;102780.34;4963045;28;45426;-45
2021/12/19 08:38:27;;;;;;;;;14.50;12.25;;;;;8.33;64.67;102777.72;4962396;28;45374;-46
2021/12/19 08:40:53;;;;;;;;;29.25;25.25;;;;;8.33;65.15;102775.09;4962578;28;45280;-46
2021/12/19 08:43:19;;;;;;;;;14.50;13.00;;;;;8.34;65.30;102776.88;4962513;28;45526;-46
2021/12/19 08:45:46;;;;;;;;;18.00;14.25;;;;;8.34;65.04;102772.53;4962772;28;45399;-45
2021/12/19 08:48:11;;;;;;;;;16.50;14.50;;;;;8.35;64.99;102771.72;4962328;28;46034;-44
2021/12/19 08:50:37;;;;;;;;;18.75;15.25;;;;;8.35;65.27;102771.72;4945014;28;45394;-45
2021/12/19 08:53:03;;;;;;;;;16.50;12.50;;;;;8.36;64.90;102770.84;4962675;28;45257;-45
2021/12/19 08:55:28;;;;;;;;;14.25;12.00;;;;;8.37;64.98;102767.38;4962504;28;45311;-44
2021/12/19 08:57:54;;;;;;;;;16.25;14.25;;;;;8.37;64.75;102774.38;4961376;28;46099;-47
2021/12/19 09:00:20;;;;;;;;;17.50;14.25;;;;;8.38;65.13;102774.41;4944805;28;45393;-44
2021/12/19 09:02:49;;;;;;;;;13.50;12.00;;;;;8.38;65.11;102777.03;4962471;28;45385;-46
2021/12/19 09:05:15;;;;;;;;;16.75;12.25;;;;;8.37;65.13;102775.25;4962484;28;45504;-44
2021/12/19 09:07:40;;;;;;;;;17.00;14.25;;;;;8.40;64.92;102779.66;4962112;28;45195;-44
2021/12/19 09:10:07;;;;;;;;;18.00;16.75;;;;;8.39;64.74;102778.78;4962276;28;45239;-46
2021/12/19 09:12:33;;;;;;;;;21.75;17.75;;;;;8.39;65.10;102781.41;4962059;28;45360;-47
2021/12/19 09:14:58;;;;;;;;;15.25;13.75;;;;;8.40;65.22;102782.28;4961905;28;45344;-44
2021/12/19 09:17:24;;;;;;;;;15.25;14.00;;;;;8.39;65.05;102784.03;4962036;28;46044;-44
2021/12/19 09:19:51;;;;;;;;;14.00;12.50;;;;;8.37;65.05;102772.63;4962016;28;45426;-46
2021/12/19 09:22:17;;;;;;;;;16.50;14.00;;;;;8.39;65.06;102784.03;4944780;28;45378;-49
2021/12/19 09:24:42;;;;;;;;;9.00;8.00;;;;;8.39;65.10;102776.19;4961913;28;45478;-46
2021/12/19 09:27:09;;;;;;;;;12.75;10.75;;;;;8.38;65.12;102777.03;4961785;28;45919;-47
2021/12/19 09:29:34;;;;;;;;;14.00;12.25;;;;;8.37;65.32;102775.25;4961631;28;45254;-48
2021/12/19 09:32:00;;;;;;;;;15.00;12.50;;;;;8.38;65.08;102777.03;4961869;28;45212;-44
2021/12/19 09:34:27;;;;;;;;;23.25;19.25;;;;;8.35;65.15;102769.09;4962065;28;45244;-46
2021/12/19 09:36:54;;;;;;;;;19.00;16.75;;;;;8.39;65.21;102778.78;4944156;28;47333;-44
2021/12/19 09:39:20;;;;;;;;;13.50;13.25;;;;;8.37;64.96;102770.00;4961665;28;45394;-44
2021/12/19 09:41:47;;;;;;;;;18.00;15.50;;;;;8.38;65.06;102770.91;4961593;28;45549;-46
2021/12/19 09:44:15;;;;;;;;;15.25;12.75;;;;;8.39;65.15;102777.88;4944125;28;45486;-45
2021/12/19 09:46:43;;;;;;;;;12.75;11.00;;;;;8.37;64.99;102775.25;4961357;28;45271;-46
2021/12/19 09:49:11;;;;;;;;;22.00;17.50;;;;;8.37;65.17;102775.25;4961561;28;45423;-45
2021/12/19 09:51:37;;;;;;;;;15.25;14.75;;;;;8.37;65.19;102784.84;4961536;28;45320;-47
2021/12/19 09:54:05;;;;;;;;;16.00;13.75;;;;;8.32;65.18;102768.13;4961395;28;45320;-46
2021/12/19 09:56:33;;;;;;;;;11.50;10.25;;;;;8.37;65.10;102771.75;4961430;28;46379;-45
2021/12/19 09:59:06;;;;;;;;;12.75;12.75;;;;;8.33;65.07;102765.53;4961237;28;45469;-45
2021/12/19 10:01:31;;;;;;;;;12.50;10.75;;;;;8.36;64.98;102768.22;4961536;28;45417;-44
2021/12/19 10:03:57;;;;;;;;;20.75;18.75;;;;;8.36;65.04;102764.72;4961385;28;45221;-45
2021/12/19 10:06:23;;;;;;;;;17.00;16.25;;;;;8.35;65.06;102771.72;4961167;28;47326;-45
2021/12/19 10:09:06;;;;;;;;;19.25;16.00;;;;;8.37;64.98;102761.25;4961129;28;45343;-44
2021/12/19 10:14:23;;;;;;;;;13.00;13.00;;;;;8.38;65.21;102755.19;4960969;28;45308;-46
2021/12/19 10:16:48;;;;;;;;;12.50;11.25;;;;;8.38;65.07;102755.19;4961249;28;45414;-44
2021/12/19 10:19:14;;;;;;;;;13.50;12.00;;;;;8.38;65.06;102755.19;4961099;28;45272;-46
2021/12/19 10:21:39;;;;;;;;;16.75;15.00;;;;;8.38;65.13;102763.03;4961263;28;45439;-48
2021/12/19 10:24:06;;;;;;;;;44.00;34.00;;;;;8.38;64.92;102761.28;4943587;28;45248;-48
2021/12/19 10:26:43;;;;;;;;;10.00;9.00;;;;;8.39;65.03;102754.31;4961128;28;45392;-45
2021/12/19 10:29:10;;;;;;;;;14.50;9.75;;;;;8.41;64.86;102743.03;4960617;28;45363;-47
2021/12/19 10:31:36;;;;;;;;;8.75;5.75;;;;;8.40;65.08;102748.22;4961018;28;45299;-45
2021/12/19 10:34:21;;;;;;;;;9.50;9.00;;;;;8.41;64.96;102737.78;4959526;28;45677;-45
2021/12/19 10:36:47;;;;;;;;;12.25;11.00;;;;;8.38;65.48;102732.47;4960656;28;45640;-47
2021/12/19 10:39:15;;;;;;;;;11.25;9.75;;;;;8.41;65.25;102742.16;4960920;28;45331;-44
2021/12/19 10:41:42;;;;;;;;;16.75;11.50;;;;;8.42;64.78;102741.31;4961005;28;45245;-47
2021/12/19 10:45:29;;;;;;;;;13.75;12.25;;;;;8.39;65.20;102739.50;4960755;28;45631;-45
2021/12/19 10:46:53;;;;;;;;;12.00;10.75;;;;;8.38;65.13;102736.84;4960553;28;45359;-45
2021/12/19 10:49:24;;;;;;;;;14.50;11.00;;;;;8.36;65.13;102736.78;4960572;28;45273;-44
2021/12/19 10:51:50;;;;;;;;;17.00;13.50;;;;;8.34;65.13;102732.34;4960970;28;45287;-45
2021/12/19 10:54:15;;;;;;;;;13.25;10.00;;;;;8.37;65.08;102733.31;4960581;28;45315;-46
2021/12/19 10:56:41;;;;;;;;;11.75;9.00;;;;;8.38;65.00;102728.97;4943364;28;46923;-46
2021/12/19 10:59:15;;;;;;;;;12.25;11.75;;;;;8.37;65.32;102722.84;4960461;28;45274;-45
2021/12/19 11:01:47;;;;;;;;;15.75;12.75;;;;;8.37;65.05;102735.06;4960719;28;45461;-43
2021/12/19 11:04:22;;;;;;;;;14.25;11.00;;;;;8.35;64.95;102724.56;4960589;28;45425;-45
2021/12/19 11:06:50;;;;;;;;;16.25;15.25;;;;;8.35;65.01;102723.66;4960400;28;46281;-46
2021/12/19 11:09:29;;;;;;;;;14.75;12.75;;;;;8.34;65.12;102720.16;4960324;28;45177;-45
2021/12/19 11:11:56;;;;;;;;;15.75;11.75;;;;;8.35;64.90;102708.84;4960605;28;45379;-44
2021/12/19 11:14:32;;;;;;;;;17.00;15.75;;;;;8.36;64.77;102704.47;4960083;28;45253;-45
2021/12/19 11:17:07;;;;;;;;;13.00;12.25;;;;;8.34;65.01;102701.81;4960476;28;47177;-48
2021/12/19 11:19:33;;;;;;;;;18.00;13.25;;;;;8.36;65.05;102704.47;4960090;28;45420;-46
2021/12/19 11:21:59;;;;;;;;;18.00;16.50;;;;;8.37;64.65;102695.75;4946134;28;45359;-47
2021/12/19 11:24:26;;;;;;;;;17.50;15.75;;;;;8.37;64.90;102696.63;4946222;28;45517;-46
2021/12/19 11:27:00;;;;;;;;;19.75;17.75;;;;;8.39;64.79;102689.72;4963750;28;46156;-46
2021/12/19 11:29:26;;;;;;;;;24.50;19.50;;;;;8.40;65.06;102685.34;4963476;28;45378;-58
2021/12/19 11:31:58;;;;;;;;;25.50;22.50;;;;;8.42;65.10;102684.53;4963666;28;45304;-44
2021/12/19 11:34:51;;;;;;;;;27.00;25.75;;;;;8.45;64.77;102681.09;4946152;28;45800;-44
2021/12/19 11:37:26;;;;;;;;;28.00;23.00;;;;;8.46;64.99;102672.44;4963123;28;47099;-43
2021/12/19 11:39:54;;;;;;;;;33.00;27.50;;;;;8.49;64.87;102671.63;4945606;28;45491;-48
2021/12/19 11:42:39;;;;;;;;;28.25;24.75;;;;;8.48;65.10;102664.63;4946164;28;45215;-46
2021/12/19 11:45:39;;;;;;;;;28.25;21.25;;;;;8.49;65.06;102666.38;4963194;28;45307;-46
2021/12/19 11:48:15;;;;;;;;;24.75;21.50;;;;;8.50;64.87;102662.94;4963252;28;46540;-45
2021/12/19 11:51:07;;;;;;;;;23.50;20.75;;;;;8.51;64.99;102656.84;4963270;28;45270;-47
2021/12/19 11:53:41;;;;;;;;;26.00;20.00;;;;;8.51;64.87;102657.72;4963478;28;45336;-45
2021/12/19 11:56:17;;;;;;;;;23.25;20.75;;;;;8.53;64.98;102652.50;4963129;28;45363;-45
2021/12/19 11:58:50;;;;;;;;;20.00;18.00;;;;;8.55;64.80;102637.72;4962980;28;46377;-46
2021/12/19 12:01:28;;;;;;;;;23.75;20.75;;;;;8.56;64.75;102636.88;4963140;28;45239;-46
2021/12/19 12:03:59;;;;;;;;;27.75;21.00;;;;;8.57;64.91;102630.78;4929907;28;45319;-44
2021/12/19 12:06:43;;;;;;;;;22.75;21.25;;;;;8.56;64.68;102629.03;4962923;28;45180;-45
2021/12/19 12:09:10;;;;;;;;;30.50;26.00;;;;;8.55;64.92;102622.00;4962878;28;45507;-44
2021/12/19 12:11:59;;;;;;;;;30.50;21.75;;;;;8.55;64.84;102625.53;4962674;28;45248;-45
2021/12/19 12:14:28;;;;;;;;;26.50;22.75;;;;;8.55;64.90;102630.75;4962804;28;45338;-44
2021/12/19 12:17:01;;;;;;;;;25.50;24.50;;;;;8.55;64.79;102616.75;4963008;28;45446;-44
2021/12/19 12:19:42;;;;;;;;;26.75;22.75;;;;;8.56;64.92;102614.16;4962572;28;45512;-45
2021/12/19 12:25:30;;;;;;;;;25.75;20.00;;;;;8.56;64.88;102608.06;4962880;28;45419;-45